Latest Weather Observations for New May Downs

IDQ60801

Issued at 3:42 pm EST Sunday 18 November 2018 (issued every 10 minutes, with the page automatically refreshed every 10 minutes)

About weather observations | Map of weather stations | Latest weather observations for QLD | Other Formats
Station Details ID: 037059 Name: NEW MAY DOWNS Lat: -20.59 Lon: 139.34 Height: 392.0 m
Data from the previous 72 hours. | See also: Recent months at New May Downs
Date/Time
EST
Temp
°C
App
Temp
°C
Dew
Point
°C
Rel
Hum
%
Delta-T
°C
Wind Press
QNH
hPa
Press
MSL
hPa
Rain since
9am
mm
Dir  Spd
km/h
Gust
km/h
Spd
kts
Gust
kts
18/03:30pm 36.1 36.1 13.6 26 14.0 N 6 19 3 10 - - 0.0
18/03:00pm 37.0 35.3 11.1 21 15.6 N 11 30 6 16 - - 0.0
18/02:30pm 37.4 36.5 11.4 21 15.7 N 7 19 4 10 - - 0.0
18/02:00pm 36.1 34.2 11.7 23 14.8 WNW 13 22 7 12 - - 0.0
18/01:30pm 37.2 35.5 11.2 21 15.7 NNW 11 20 6 11 - - 0.0
18/01:00pm 36.8 35.4 12.3 23 15.0 NNW 11 22 6 12 - - 0.0
18/12:30pm 36.6 35.2 12.1 23 14.9 NNE 11 20 6 11 - - 0.0
18/12:00pm 35.9 34.5 12.2 24 14.4 NW 11 19 6 10 - - 0.0
18/11:30am 35.5 35.3 13.6 26 13.6 SE 7 15 4 8 - - 0.0
18/11:00am 35.3 35.1 13.5 27 13.5 ENE 7 17 4 9 - - 0.0
18/10:30am 34.6 34.5 13.4 28 13.1 NNE 6 17 3 9 - - 0.0
18/10:00am 34.1 34.1 13.5 28 12.7 NNW 6 11 3 6 - - 0.0
18/09:30am 32.3 32.6 13.5 32 11.5 SW 4 6 2 3 - - 0.0
18/09:00am 31.3 31.4 14.4 35 10.5 SW 7 13 4 7 - - 0.0
18/08:30am 30.0 30.4 15.3 41 9.2 W 7 13 4 7 - - 0.0
18/08:00am 29.2 28.4 16.0 44 8.3 W 15 19 8 10 - - 0.0
18/07:30am 28.2 28.8 16.8 50 7.2 W 9 13 5 7 - - 0.0
18/07:00am 26.5 28.6 18.1 60 5.4 W 4 6 2 3 - - 0.0
18/06:30am 25.2 27.9 17.7 63 4.8 CALM 0 0 0 0 - - 0.0
18/06:00am 24.4 27.0 17.4 65 4.4 CALM 0 0 0 0 - - 0.0
18/05:30am 25.3 27.2 17.7 62 4.8 NNW 4 7 2 4 - - 0.0
18/05:00am 25.7 27.2 17.6 61 5.2 NNW 6 9 3 5 - - 0.0
18/04:30am 26.0 28.2 17.4 59 5.5 WNW 2 4 1 2 - - 0.0
18/04:00am 26.3 28.0 17.1 57 5.8 W 4 6 2 3 - - 0.0
18/03:30am 26.8 27.9 16.7 54 6.4 WNW 6 9 3 5 - - 0.0
18/03:00am 27.3 27.8 16.6 52 6.7 WNW 9 13 5 7 - - 0.0
18/02:30am 27.7 28.5 16.3 49 7.2 WNW 7 13 4 7 - - 0.0
18/02:00am 28.2 28.5 16.1 47 7.6 NW 9 17 5 9 - - 0.0
18/01:30am 28.5 28.7 15.8 46 7.9 NNW 9 13 5 7 - - 0.0
18/01:00am 28.5 27.6 15.8 46 7.9 NW 15 24 8 13 - - 0.0
18/12:30am 28.8 28.7 16.0 45 8.0 NNW 11 20 6 11 - - 0.0
18/12:00am 28.9 28.7 15.8 45 8.2 N 11 15 6 8 - - 0.0
 
Date/Time
EST
Temp
°C
App
Temp
°C
Dew
Point
°C
Rel
Hum
%
Delta-T
°C
Wind Press
QNH
hPa
Press
MSL
hPa
Rain since
9am
mm
Dir  Spd
km/h
Gust
km/h
Spd
kts
Gust
kts
17/11:30pm 29.1 29.4 16.0 45 8.2 NNE 9 13 5 7 - - 0.0
17/11:00pm 29.4 28.9 15.9 44 8.5 E 13 19 7 10 - - 0.0
17/10:30pm 29.7 29.0 15.4 42 8.9 ENE 13 22 7 12 - - 0.0
17/10:00pm 29.8 30.6 14.7 39 9.3 ENE 4 6 2 3 - - 0.0
17/09:30pm 30.2 31.0 14.7 39 9.6 N 4 6 2 3 - - 0.0
17/09:00pm 30.4 29.8 14.5 38 9.8 NNW 11 20 6 11 - - 0.0
17/08:30pm 29.9 28.5 14.4 38 9.5 NNW 15 22 8 12 - - 0.0
17/08:00pm 30.0 29.7 14.5 38 9.6 NNW 9 15 5 8 - - 0.0
17/07:30pm 29.6 29.6 15.3 41 8.9 N 9 17 5 9 - - 0.0
17/07:00pm 30.7 30.9 14.8 38 9.9 NNE 7 11 4 6 - - 0.0
17/06:30pm 31.0 28.3 14.6 37 10.2 ENE 22 32 12 17 - - 0.0
17/06:00pm 31.8 28.6 13.1 32 11.4 ENE 22 33 12 18 - - 0.0
17/05:30pm 31.7 27.9 14.8 36 10.5 NE 28 43 15 23 - - 0.0
17/05:18pm 32.9 29.1 13.5 30 11.9 ENE 26 46 14 25 - - 0.0
17/05:00pm 34.7 33.0 12.4 26 13.6 N 13 20 7 11 - - 0.0
17/04:30pm 34.8 30.6 12.5 26 13.6 NW 26 37 14 20 - - 0.0
17/04:21pm 36.1 33.2 11.0 22 15.0 NW 17 37 9 20 - - 0.0
17/04:00pm 38.0 37.0 11.1 20 16.3 NNW 7 15 4 8 - - 0.0
17/03:30pm 37.2 34.5 10.5 20 15.9 N 15 24 8 13 - - 0.0
17/03:00pm 36.2 32.8 10.4 21 15.3 N 19 32 10 17 - - 0.0
17/02:30pm 35.6 32.2 11.3 23 14.6 N 20 32 11 17 - - 0.0
17/02:01pm 34.5 29.3 13.3 27 13.1 NE 33 56 18 30 - - 0.0
17/02:00pm 35.2 30.2 13.4 27 13.5 ENE 32 56 17 30 - - 0.0
17/01:52pm 36.4 34.2 13.2 25 14.4 NE 17 56 9 30 - - 0.0
17/01:30pm 38.5 36.3 10.8 19 16.7 NW 13 30 7 16 - - 0.0
17/01:00pm 37.3 34.7 10.6 20 16.0 NNW 15 26 8 14 - - 0.0
17/12:30pm 36.4 34.5 10.6 21 15.4 NNW 11 19 6 10 - - 0.0
17/12:00pm 37.1 35.2 10.4 20 15.9 N 11 24 6 13 - - 0.0
17/11:30am 36.2 35.2 10.4 21 15.3 NNE 6 13 3 7 - - 0.0
17/11:00am 35.5 34.2 11.2 23 14.6 NNE 9 19 5 10 - - 0.0
17/10:30am 35.4 34.2 11.7 23 14.3 ENE 9 17 5 9 - - 0.0
17/10:00am 34.9 34.0 12.5 25 13.7 E 9 15 5 8 - - 0.0
17/09:30am 33.5 33.3 13.0 29 12.5 NNE 6 17 3 9 - - 0.0
17/09:00am 32.5 32.7 14.6 34 11.2 SE 7 11 4 6 - - 0.0
17/08:30am 30.8 31.2 15.2 38 9.7 SE 7 11 4 6 - - 0.0
17/08:00am 29.4 30.2 15.9 44 8.5 SSW 6 9 3 5 - - 0.0
17/07:30am 28.4 29.5 16.7 49 7.4 W 6 7 3 4 - - 0.0
17/07:00am 27.1 29.1 17.8 56 6.0 WSW 4 7 2 4 - - 0.0
17/06:30am 25.6 28.9 19.0 67 4.3 CALM 0 0 0 0 - - 0.0
17/06:00am 25.4 28.5 18.6 66 4.4 CALM 0 0 0 0 - - 0.0
17/05:30am 25.7 28.8 18.6 65 4.6 CALM 0 2 0 1 - - 0.0
17/05:00am 26.1 28.5 18.8 64 4.7 W 4 6 2 3 - - 0.0
17/04:30am 26.5 29.1 18.4 61 5.2 N 2 6 1 3 - - 0.0
17/04:00am 27.1 29.7 18.4 59 5.6 NNE 2 4 1 2 - - 0.0
17/03:30am 27.3 30.2 18.3 58 5.8 CALM 0 2 0 1 - - 0.0
17/03:00am 27.4 28.9 18.1 57 6.0 SSE 7 9 4 5 - - 0.0
17/02:30am 28.1 29.7 18.2 55 6.4 W 7 13 4 7 - - 0.0
17/02:00am 28.3 29.3 17.8 53 6.8 WNW 9 17 5 9 - - 0.0
17/01:30am 28.4 28.8 18.2 54 6.6 W 13 20 7 11 - - 0.0
17/01:00am 28.4 29.2 18.2 54 6.6 W 11 17 6 9 - - 0.0
17/12:30am 28.4 29.0 18.5 55 6.4 WNW 13 19 7 10 - - 0.0
17/12:00am 28.0 29.7 18.1 55 6.4 WNW 6 9 3 5 - - 0.0
 
Date/Time
EST
Temp
°C
App
Temp
°C
Dew
Point
°C
Rel
Hum
%
Delta-T
°C
Wind Press
QNH
hPa
Press
MSL
hPa
Rain since
9am
mm
Dir  Spd
km/h
Gust
km/h
Spd
kts
Gust
kts
16/11:30pm 28.2 29.6 17.4 52 6.9 NNW 6 7 3 4 - - 0.0
16/11:00pm 28.9 29.9 16.8 48 7.7 N 7 13 4 7 - - 0.0
16/10:30pm 29.5 29.9 16.3 45 8.3 N 9 15 5 8 - - 0.0
16/10:00pm 30.1 29.6 15.8 42 9.0 NNE 13 20 7 11 - - 0.0
16/09:30pm 30.5 28.9 15.0 39 9.6 NE 17 32 9 17 - - 0.0
16/09:00pm 30.4 28.2 14.5 38 9.8 ENE 19 28 10 15 - - 0.0
16/08:30pm 31.3 27.6 14.0 35 10.6 ENE 26 35 14 19 - - 0.0
16/08:00pm 32.2 32.5 13.4 32 11.5 N 4 6 2 3 - - 0.0
16/07:30pm 33.0 32.5 12.6 29 12.4 N 7 9 4 5 - - 0.0
16/07:00pm 33.5 33.1 13.0 29 12.5 N 7 13 4 7 - - 0.0
16/06:30pm 33.1 32.0 13.2 30 12.2 N 11 17 6 9 - - 0.0
16/06:00pm 34.8 34.0 11.2 24 14.1 NNE 6 9 3 5 - - 0.0
16/05:30pm 36.6 34.5 8.4 18 16.3 ESE 9 13 5 7 - - 0.0
16/05:00pm 37.0 33.9 8.8 18 16.4 ESE 15 20 8 11 - - 0.0
16/04:30pm 37.8 36.7 8.6 17 17.0 ENE 4 7 2 4 - - 0.0
16/04:00pm 37.0 35.0 8.8 18 16.4 NE 9 17 5 9 - - 0.0
16/03:30pm 37.7 36.4 9.3 18 16.7 NNE 6 17 3 9 - - 0.0
16/03:00pm 36.7 35.4 9.3 19 16.0 ENE 6 15 3 8 - - 0.0
16/02:30pm 37.1 35.3 9.6 19 16.2 NNW 9 22 5 12 - - 0.0
16/02:00pm 38.1 35.6 9.6 18 16.9 E 13 24 7 13 - - 0.0
16/01:30pm 37.3 34.6 9.0 18 16.5 ENE 13 26 7 14 - - 0.0
16/01:00pm 37.7 34.7 9.3 18 16.7 ESE 15 22 8 12 - - 0.0
16/12:30pm 36.2 35.6 10.4 21 15.3 WSW 4 15 2 8 - - 0.0
16/12:00pm 35.0 32.4 10.8 23 14.4 NNE 15 24 8 13 - - 0.0
16/11:30am 36.1 33.8 10.3 21 15.3 ENE 13 22 7 12 - - 0.0
16/11:00am 35.8 33.4 10.1 21 15.2 NE 13 24 7 13 - - 0.0
16/10:30am 35.3 33.9 11.0 23 14.5 NE 9 15 5 8 - - 0.0
16/10:00am 34.9 33.1 10.7 23 14.4 E 11 20 6 11 - - 0.0
16/09:30am 34.0 32.5 10.6 24 13.8 E 9 15 5 8 - - 0.0
16/09:00am 33.0 31.6 10.9 26 13.1 ESE 9 15 5 8 - - 0.0
16/08:30am 31.6 30.5 11.9 30 11.7 SE 9 13 5 7 - - 0.0
16/08:00am 30.5 29.7 12.9 34 10.6 ESE 9 17 5 9 - - 0.0
16/07:30am 28.5 29.5 15.4 45 8.1 ESE 4 9 2 5 - - 0.0
16/07:00am 26.3 29.3 18.4 61 5.1 CALM 0 0 0 0 - - 0.0
16/06:30am 24.4 26.6 18.3 69 3.9 NE 4 6 2 3 - - 0.0
16/06:00am 24.0 26.2 18.4 71 3.6 NE 4 6 2 3 - - 0.0
16/05:30am 23.4 26.0 18.3 73 3.3 NNE 2 6 1 3 - - 0.0
16/05:00am 23.5 26.0 18.2 72 3.4 NNE 2 4 1 2 - - 0.0
16/04:30am 24.3 26.8 18.2 68 3.9 W 2 2 1 1 - - 0.0
16/04:00am 24.6 26.6 18.8 70 3.7 WNW 6 7 3 4 - - 0.0
16/03:30am 24.6 25.8 18.3 68 4.0 WSW 9 13 5 7 - - 0.0
16/03:00am 24.3 25.9 18.2 68 3.9 SW 7 13 4 7 - - 0.0
16/02:30am 24.8 27.4 18.3 67 4.2 WSW 2 4 1 2 - - 0.0
16/02:00am 24.9 27.9 18.4 67 4.2 CALM 0 4 0 2 - - 0.0
16/01:30am 25.3 27.6 16.7 59 5.4 CALM 0 0 0 0 - - 0.0
16/01:00am 26.6 28.5 16.8 55 6.2 WNW 2 4 1 2 - - 0.0
16/12:30am 27.3 28.0 15.7 49 7.2 NNW 6 9 3 5 - - 0.0
16/12:00am 27.8 28.5 15.5 47 7.6 N 6 7 3 4 - - 0.0
 
Date/Time
EST
Temp
°C
App
Temp
°C
Dew
Point
°C
Rel
Hum
%
Delta-T
°C
Wind Press
QNH
hPa
Press
MSL
hPa
Rain since
9am
mm
Dir  Spd
km/h
Gust
km/h
Spd
kts
Gust
kts
15/11:30pm 28.2 28.9 15.5 46 7.9 N 6 7 3 4 - - 0.0
15/11:00pm 28.8 29.0 14.2 40 8.9 NNE 6 6 3 3 - - 0.0
15/10:30pm 28.8 30.3 14.6 42 8.7 CALM 0 0 0 0 - - 0.0
15/10:00pm 29.1 30.5 14.5 41 9.0 CALM 0 4 0 2 - - 0.0
15/09:30pm 30.1 30.4 13.4 36 10.1 ENE 4 4 2 2 - - 0.0
15/09:00pm 30.4 30.4 13.7 36 10.2 ENE 6 9 3 5 - - 0.0
15/08:30pm 30.9 29.4 14.1 36 10.3 ENE 15 20 8 11 - - 0.0
15/08:00pm 30.4 29.5 14.9 39 9.6 ENE 13 17 7 9 - - 0.0
15/07:30pm 30.0 31.7 15.3 41 9.2 CALM 0 6 0 3 - - 0.0
15/07:00pm 30.8 33.1 16.8 43 9.0 CALM 0 0 0 0 - - 0.0
15/06:30pm 31.8 33.8 16.1 38 10.0 CALM 0 0 0 0 - - 0.0
15/06:00pm 32.1 33.2 15.6 37 10.4 WNW 4 4 2 2 - - 0.0
15/05:30pm 32.2 32.8 14.3 33 11.1 SW 4 6 2 3 - - 0.0
15/05:00pm 32.1 32.6 15.1 35 10.7 WSW 6 9 3 5 - - 0.0
15/04:30pm 32.1 32.0 13.8 33 11.3 WSW 7 11 4 6 - - 0.0
15/04:00pm 33.4 33.0 14.0 31 12.0 WNW 9 13 5 7 - - 0.0

Other Formats:

Comma delimited format used in spreadsheet applications
http://www.bom.gov.au/fwo/IDQ60801/IDQ60801.94349.axf

JavaScript Object Notation format (JSON) in row-major order
http://www.bom.gov.au/fwo/IDQ60801/IDQ60801.94349.json